Time;durP1;ratioP1;P1;durP2;ratioP2;P2;SDS_P1;SDS_P2;PMS_P1;PMS_P2;Temp;Humidity;BMP_temperature;BMP_pressure;BME280_temperature;BME280_humidity;BME280_pressure;Samples;Min_cycle;Max_cycle;Signal;HPM_P1;HPM_P2
2022/01/14 00:02:12;;;;;;;27.88;14.40;;;;;;;;;;5087723;28;20066;-60
2022/01/14 00:04:39;;;;;;;31.90;16.00;;;;;;;;;;5087861;28;20291;-61
2022/01/14 00:07:05;;;;;;;28.83;15.30;;;;;;;;;;5088340;28;20123;-62
2022/01/14 00:09:33;;;;;;;31.05;13.85;;;;;;;;;;5089272;28;20043;-61
2022/01/14 00:12:03;;;;;;;30.30;13.77;;;;;;;;;;5088293;28;20058;-61
2022/01/14 00:14:38;;;;;;;28.40;13.50;;;;;;;;;;5122929;27;20050;-61
2022/01/14 00:17:05;;;;;;;28.73;11.85;;;;;;;;;;5088860;28;20539;-61
2022/01/14 00:19:32;;;;;;;34.58;14.85;;;;;;;;;;5082768;28;20341;-60
2022/01/14 00:22:01;;;;;;;33.53;13.45;;;;;;;;;;5087668;28;20489;-60
2022/01/14 00:31:37;;;;;;;31.83;13.40;;;;;;;;;;5089488;28;20046;-60
2022/01/14 00:32:59;;;;;;;30.40;13.63;;;;;;;;;;5083739;28;20040;-61
2022/01/14 00:35:25;;;;;;;30.83;14.13;;;;;;;;;;5088368;28;20129;-61
2022/01/14 00:37:51;;;;;;;29.88;14.13;;;;;;;;;;5088746;28;20040;-61
2022/01/14 00:40:18;;;;;;;32.28;15.30;;;;;;;;;;5087233;28;20047;-60
2022/01/14 00:42:44;;;;;;;30.33;13.25;;;;;;;;;;5088949;28;20028;-62
2022/01/14 00:45:11;;;;;;;40.25;16.55;;;;;;;;;;5088429;28;20032;-63
2022/01/14 00:47:39;;;;;;;30.40;16.23;;;;;;;;;;5088377;28;20043;-62
2022/01/14 00:50:10;;;;;;;33.28;16.67;;;;;;;;;;5087910;28;20044;-62
2022/01/14 00:52:37;;;;;;;33.22;15.85;;;;;;;;;;5076207;28;20498;-62
2022/01/14 00:55:04;;;;;;;36.47;14.80;;;;;;;;;;5089004;28;20039;-62
2022/01/14 01:00:18;;;;;;;34.92;18.40;;;;;;;;;;5088590;28;20040;-62
2022/01/14 01:02:44;;;;;;;34.63;16.55;;;;;;;;;;5086914;28;20089;-62
2022/01/14 01:05:13;;;;;;;38.17;17.50;;;;;;;;;;5087611;28;20048;-63
2022/01/14 01:07:40;;;;;;;31.70;17.35;;;;;;;;;;5086423;28;20036;-62
2022/01/14 01:10:07;;;;;;;36.60;19.05;;;;;;;;;;5069560;28;20040;-62
2022/01/14 01:12:47;;;;;;;36.67;17.75;;;;;;;;;;5087398;28;20052;-62
2022/01/14 01:15:16;;;;;;;41.22;18.88;;;;;;;;;;5088907;28;20113;-62
2022/01/14 01:17:42;;;;;;;36.70;17.75;;;;;;;;;;5069199;28;20079;-61
2022/01/14 01:20:18;;;;;;;32.42;18.20;;;;;;;;;;5086172;28;21046;-62
2022/01/14 01:22:48;;;;;;;40.40;18.38;;;;;;;;;;5086922;28;20202;-62
2022/01/14 01:25:17;;;;;;;43.50;20.02;;;;;;;;;;5086079;28;20039;-62
2022/01/14 01:27:45;;;;;;;38.10;18.60;;;;;;;;;;5087207;28;20051;-62
2022/01/14 01:32:57;;;;;;;36.53;18.00;;;;;;;;;;5087250;28;20478;-63
2022/01/14 01:35:23;;;;;;;36.83;18.92;;;;;;;;;;5086711;28;20132;-62
2022/01/14 01:37:49;;;;;;;33.97;17.08;;;;;;;;;;5069810;28;20394;-61
2022/01/14 01:40:16;;;;;;;36.05;18.42;;;;;;;;;;5069456;28;20050;-62
2022/01/14 01:42:44;;;;;;;38.25;17.80;;;;;;;;;;5085468;28;20071;-62
2022/01/14 01:45:12;;;;;;;38.50;18.63;;;;;;;;;;5069684;28;20038;-62
2022/01/14 01:47:38;;;;;;;41.80;18.67;;;;;;;;;;5085809;28;20040;-62
2022/01/14 01:50:11;;;;;;;38.25;19.23;;;;;;;;;;5086771;28;20062;-62
2022/01/14 01:52:38;;;;;;;40.60;18.88;;;;;;;;;;5086866;28;20078;-62
2022/01/14 01:55:04;;;;;;;39.78;18.38;;;;;;;;;;5086267;28;20043;-62
2022/01/14 01:57:30;;;;;;;39.67;16.40;;;;;;;;;;5085544;28;20489;-62
2022/01/14 01:59:56;;;;;;;35.13;18.58;;;;;;;;;;5087644;28;20064;-62
2022/01/14 02:02:23;;;;;;;39.72;19.77;;;;;;;;;;5085954;28;20131;-60
2022/01/14 02:04:49;;;;;;;42.58;19.05;;;;;;;;;;5087205;28;20493;-60
2022/01/14 02:07:15;;;;;;;41.88;19.38;;;;;;;;;;5085875;28;20806;-61
2022/01/14 02:09:41;;;;;;;43.47;19.02;;;;;;;;;;5087176;28;20051;-61
2022/01/14 02:12:10;;;;;;;40.88;19.13;;;;;;;;;;5086008;28;20522;-61
2022/01/14 02:22:49;;;;;;;43.03;19.77;;;;;;;;;;5088220;28;20055;-60
2022/01/14 02:25:16;;;;;;;45.70;20.70;;;;;;;;;;5088074;28;20074;-61
2022/01/14 02:27:43;;;;;;;36.67;18.90;;;;;;;;;;5088333;28;20187;-59
2022/01/14 02:30:09;;;;;;;47.50;21.65;;;;;;;;;;5087758;28;20110;-60
2022/01/14 02:32:36;;;;;;;41.28;20.02;;;;;;;;;;5085854;28;20123;-60
2022/01/14 02:35:02;;;;;;;42.03;17.50;;;;;;;;;;5085700;28;20062;-60
2022/01/14 02:37:29;;;;;;;43.88;20.05;;;;;;;;;;5086652;28;20032;-59
2022/01/14 02:39:55;;;;;;;42.90;19.58;;;;;;;;;;5085581;28;20048;-60
2022/01/14 02:42:21;;;;;;;42.40;18.75;;;;;;;;;;5087848;28;20123;-60
2022/01/14 02:44:48;;;;;;;42.28;19.05;;;;;;;;;;5087897;28;20498;-60
2022/01/14 02:47:17;;;;;;;40.55;20.25;;;;;;;;;;5087585;28;20500;-60
2022/01/14 02:49:44;;;;;;;40.13;20.88;;;;;;;;;;5088321;28;20044;-60
2022/01/14 02:52:10;;;;;;;37.85;18.23;;;;;;;;;;5085626;28;20124;-62
2022/01/14 02:54:51;;;;;;;41.10;21.00;;;;;;;;;;5072711;28;20463;-62
2022/01/14 02:57:18;;;;;;;41.53;20.77;;;;;;;;;;5091728;28;20071;-62
2022/01/14 02:59:45;;;;;;;40.85;21.35;;;;;;;;;;5089434;28;20032;-62
2022/01/14 03:02:11;;;;;;;42.45;21.50;;;;;;;;;;5091780;28;20078;-62
2022/01/14 03:04:39;;;;;;;40.97;20.38;;;;;;;;;;5090611;28;20047;-62
2022/01/14 03:07:06;;;;;;;39.95;20.73;;;;;;;;;;5089782;28;20519;-62
2022/01/14 03:09:33;;;;;;;39.78;20.58;;;;;;;;;;5090047;28;20516;-62
2022/01/14 03:12:00;;;;;;;48.55;22.55;;;;;;;;;;5122856;27;20414;-62
2022/01/14 03:14:26;;;;;;;41.95;21.30;;;;;;;;;;5090873;28;20401;-62
2022/01/14 03:16:53;;;;;;;38.17;19.42;;;;;;;;;;5072887;28;20040;-62
2022/01/14 03:19:23;;;;;;;43.90;21.13;;;;;;;;;;5090258;28;20047;-63
2022/01/14 03:21:52;;;;;;;40.80;20.70;;;;;;;;;;5089149;28;20055;-62
2022/01/14 03:26:45;;;;;;;39.50;18.58;;;;;;;;;;5091151;28;20140;-62
2022/01/14 03:29:12;;;;;;;42.55;22.15;;;;;;;;;;5089995;28;20055;-63
2022/01/14 03:31:38;;;;;;;37.33;19.63;;;;;;;;;;5089942;28;20051;-62
2022/01/14 03:34:04;;;;;;;40.90;19.30;;;;;;;;;;5088307;28;20371;-62
2022/01/14 03:36:31;;;;;;;37.38;19.65;;;;;;;;;;5090519;28;20097;-62
2022/01/14 03:38:57;;;;;;;35.95;19.25;;;;;;;;;;5072110;28;20130;-62
2022/01/14 03:41:23;;;;;;;38.80;20.50;;;;;;;;;;5091187;28;20044;-62
2022/01/14 03:43:49;;;;;;;39.15;20.13;;;;;;;;;;5087331;28;20051;-62
2022/01/14 03:46:15;;;;;;;40.53;20.52;;;;;;;;;;5090677;28;20044;-62
2022/01/14 03:48:41;;;;;;;43.15;22.10;;;;;;;;;;5089080;28;20120;-61
2022/01/14 03:51:07;;;;;;;36.03;20.58;;;;;;;;;;5088520;28;20048;-62
2022/01/14 03:53:34;;;;;;;40.28;19.67;;;;;;;;;;5088468;28;20108;-62
2022/01/14 03:56:00;;;;;;;33.17;19.50;;;;;;;;;;5087990;28;20071;-61
2022/01/14 03:58:26;;;;;;;41.97;19.95;;;;;;;;;;5088367;28;20406;-62
2022/01/14 04:00:52;;;;;;;32.22;17.95;;;;;;;;;;5090099;28;20071;-61
2022/01/14 04:03:18;;;;;;;42.13;21.63;;;;;;;;;;5087978;28;20040;-62
2022/01/14 04:05:44;;;;;;;36.15;19.05;;;;;;;;;;5088659;28;20047;-62
2022/01/14 04:08:10;;;;;;;39.47;20.35;;;;;;;;;;5070608;28;20489;-62
2022/01/14 04:10:37;;;;;;;37.65;20.80;;;;;;;;;;5089700;28;20052;-61
2022/01/14 04:13:11;;;;;;;43.45;21.08;;;;;;;;;;5088693;28;20472;-61
2022/01/14 04:15:38;;;;;;;33.03;20.02;;;;;;;;;;5088689;28;20505;-61
2022/01/14 04:18:05;;;;;;;37.67;21.15;;;;;;;;;;5088583;28;20047;-62
2022/01/14 04:20:32;;;;;;;33.88;20.42;;;;;;;;;;5089915;28;20036;-61
2022/01/14 04:22:59;;;;;;;39.08;20.83;;;;;;;;;;5088242;28;20066;-61
2022/01/14 04:25:25;;;;;;;38.90;20.45;;;;;;;;;;5071030;28;20055;-61
2022/01/14 04:27:51;;;;;;;36.28;20.10;;;;;;;;;;5089549;28;20040;-61
2022/01/14 04:30:18;;;;;;;43.28;22.73;;;;;;;;;;5089323;28;20094;-61
2022/01/14 04:32:44;;;;;;;39.38;19.40;;;;;;;;;;5087849;28;20040;-61
2022/01/14 04:35:10;;;;;;;42.85;22.52;;;;;;;;;;5088156;28;20040;-61
2022/01/14 04:37:36;;;;;;;41.45;22.80;;;;;;;;;;5087472;28;20114;-61
2022/01/14 04:40:03;;;;;;;45.15;24.30;;;;;;;;;;5087450;28;20048;-61
2022/01/14 04:42:29;;;;;;;40.58;25.38;;;;;;;;;;5087586;28;20124;-61
2022/01/14 04:44:56;;;;;;;41.65;25.98;;;;;;;;;;5088102;28;20234;-62
2022/01/14 04:47:56;;;;;;;46.50;24.40;;;;;;;;;;5088940;28;20131;-61
2022/01/14 04:50:16;;;;;;;44.97;27.15;;;;;;;;;;5087047;28;20125;-61
2022/01/14 04:52:45;;;;;;;44.83;23.20;;;;;;;;;;5087073;28;20043;-62
2022/01/14 04:55:12;;;;;;;49.15;26.05;;;;;;;;;;5071240;28;20047;-62
2022/01/14 04:57:38;;;;;;;47.17;26.20;;;;;;;;;;5087216;28;20036;-62
2022/01/14 05:00:05;;;;;;;45.45;25.00;;;;;;;;;;5088095;28;20048;-62
2022/01/14 05:02:31;;;;;;;48.40;25.70;;;;;;;;;;5088118;28;20393;-62
2022/01/14 05:04:59;;;;;;;42.28;26.00;;;;;;;;;;5088224;28;20040;-62
2022/01/14 05:07:26;;;;;;;48.67;26.35;;;;;;;;;;5070671;28;20071;-61
2022/01/14 05:10:08;;;;;;;43.97;21.60;;;;;;;;;;5087103;28;20083;-61
2022/01/14 05:12:35;;;;;;;45.28;25.58;;;;;;;;;;5087855;28;20121;-62
2022/01/14 05:15:02;;;;;;;38.03;24.70;;;;;;;;;;5087091;28;20112;-61
2022/01/14 05:17:28;;;;;;;40.13;24.98;;;;;;;;;;5088933;28;20036;-61
2022/01/14 05:19:55;;;;;;;47.03;25.13;;;;;;;;;;5071667;28;20510;-62
2022/01/14 05:22:21;;;;;;;41.72;25.65;;;;;;;;;;5069695;28;20505;-62
2022/01/14 05:24:48;;;;;;;41.17;24.85;;;;;;;;;;5086303;28;20048;-61
2022/01/14 05:27:14;;;;;;;40.33;24.02;;;;;;;;;;5087053;28;20054;-62
2022/01/14 05:29:40;;;;;;;40.88;26.45;;;;;;;;;;5086512;28;20058;-62
2022/01/14 05:32:10;;;;;;;39.03;24.77;;;;;;;;;;5086204;28;20039;-62
2022/01/14 05:34:36;;;;;;;42.65;25.10;;;;;;;;;;5087140;28;20052;-62
2022/01/14 05:37:03;;;;;;;41.42;26.08;;;;;;;;;;5086265;28;20508;-61
2022/01/14 05:39:30;;;;;;;35.75;22.25;;;;;;;;;;5089344;28;20061;-61
2022/01/14 05:41:57;;;;;;;40.75;26.27;;;;;;;;;;5086506;28;20524;-61
2022/01/14 05:44:24;;;;;;;43.28;26.58;;;;;;;;;;5069147;28;20048;-62
2022/01/14 05:46:50;;;;;;;43.47;25.63;;;;;;;;;;5086601;28;20457;-62
2022/01/14 05:49:17;;;;;;;36.47;21.92;;;;;;;;;;5087176;28;20092;-62
2022/01/14 05:51:43;;;;;;;37.35;23.70;;;;;;;;;;5070886;28;20270;-62
2022/01/14 05:54:09;;;;;;;36.40;23.58;;;;;;;;;;5086481;28;20044;-62
2022/01/14 05:56:35;;;;;;;39.53;22.50;;;;;;;;;;5087405;28;20599;-62
2022/01/14 05:59:02;;;;;;;37.65;22.85;;;;;;;;;;5086519;28;20050;-62
2022/01/14 06:01:30;;;;;;;37.92;20.70;;;;;;;;;;5085982;28;20083;-62
2022/01/14 06:03:57;;;;;;;36.92;21.38;;;;;;;;;;5069131;28;20401;-62
2022/01/14 06:06:23;;;;;;;32.97;20.05;;;;;;;;;;5085979;28;20044;-62
2022/01/14 06:08:50;;;;;;;37.40;19.15;;;;;;;;;;5086111;28;20131;-62
2022/01/14 06:11:16;;;;;;;36.80;18.77;;;;;;;;;;5085618;28;20055;-62
2022/01/14 06:13:42;;;;;;;39.03;19.17;;;;;;;;;;5120680;27;20048;-62
2022/01/14 06:16:09;;;;;;;29.67;16.60;;;;;;;;;;5087889;28;20062;-62
2022/01/14 06:18:35;;;;;;;33.63;18.75;;;;;;;;;;5086510;28;20058;-62
2022/01/14 06:21:01;;;;;;;36.10;18.13;;;;;;;;;;5069421;28;20088;-62
2022/01/14 06:23:27;;;;;;;32.38;17.70;;;;;;;;;;5068706;28;20044;-62
2022/01/14 06:25:53;;;;;;;33.53;18.02;;;;;;;;;;5086348;28;20051;-62
2022/01/14 06:28:19;;;;;;;33.60;17.98;;;;;;;;;;5090171;28;20119;-62
2022/01/14 06:30:45;;;;;;;34.60;18.40;;;;;;;;;;5090304;28;20044;-62
2022/01/14 06:33:12;;;;;;;36.63;18.85;;;;;;;;;;5090296;28;20039;-62
2022/01/14 06:35:38;;;;;;;34.40;17.95;;;;;;;;;;5091874;28;20040;-61
2022/01/14 06:38:04;;;;;;;43.85;19.35;;;;;;;;;;5091074;28;20036;-61
2022/01/14 06:40:30;;;;;;;33.97;19.10;;;;;;;;;;5091408;28;20217;-61
2022/01/14 06:42:57;;;;;;;34.35;17.23;;;;;;;;;;5091715;28;20505;-60
2022/01/14 06:45:23;;;;;;;34.53;16.98;;;;;;;;;;5073745;28;20146;-60
2022/01/14 06:47:50;;;;;;;34.40;16.60;;;;;;;;;;5089665;28;20046;-61
2022/01/14 06:50:16;;;;;;;32.97;15.75;;;;;;;;;;5090271;28;20123;-61
2022/01/14 06:52:42;;;;;;;34.33;16.88;;;;;;;;;;5089953;28;20039;-61
2022/01/14 06:55:09;;;;;;;38.13;15.20;;;;;;;;;;5090879;28;20048;-61
2022/01/14 06:57:35;;;;;;;30.23;13.23;;;;;;;;;;5089716;28;20043;-62
2022/01/14 07:00:12;;;;;;;28.75;12.50;;;;;;;;;;5089591;28;20032;-62
2022/01/14 07:02:39;;;;;;;28.75;11.85;;;;;;;;;;5089413;28;20103;-62
2022/01/14 07:05:05;;;;;;;30.75;12.40;;;;;;;;;;5090687;28;20382;-62
2022/01/14 07:07:32;;;;;;;31.75;11.13;;;;;;;;;;5089335;28;20138;-62
2022/01/14 07:09:58;;;;;;;30.48;11.63;;;;;;;;;;5089903;28;20091;-62
2022/01/14 07:12:28;;;;;;;32.80;11.43;;;;;;;;;;5089722;28;20055;-62
2022/01/14 07:14:56;;;;;;;33.83;10.40;;;;;;;;;;5088930;28;20377;-62
2022/01/14 07:17:23;;;;;;;27.88;9.25;;;;;;;;;;5089948;28;20115;-61
2022/01/14 07:19:51;;;;;;;28.98;8.25;;;;;;;;;;5088564;28;20052;-62
2022/01/14 07:22:17;;;;;;;25.67;7.10;;;;;;;;;;5091109;28;20054;-62
2022/01/14 07:24:44;;;;;;;24.17;8.20;;;;;;;;;;5071220;28;20044;-62
2022/01/14 07:27:10;;;;;;;32.05;7.63;;;;;;;;;;5090911;28;20512;-62
2022/01/14 07:29:36;;;;;;;19.10;6.80;;;;;;;;;;5090168;28;20443;-62
2022/01/14 07:32:02;;;;;;;23.65;6.45;;;;;;;;;;5089241;28;20054;-62
2022/01/14 07:34:29;;;;;;;28.55;7.35;;;;;;;;;;5055131;28;20109;-63
2022/01/14 07:36:55;;;;;;;21.23;5.47;;;;;;;;;;5088607;28;20096;-62
2022/01/14 07:39:23;;;;;;;28.10;5.78;;;;;;;;;;5088301;28;20047;-62
2022/01/14 07:41:49;;;;;;;21.15;5.80;;;;;;;;;;5091040;28;20048;-61
2022/01/14 07:44:15;;;;;;;24.23;5.97;;;;;;;;;;5090175;28;20036;-61
2022/01/14 07:46:42;;;;;;;28.67;6.43;;;;;;;;;;5072677;28;20567;-62
2022/01/14 07:49:08;;;;;;;25.70;5.47;;;;;;;;;;5088914;28;20562;-63
2022/01/14 07:51:34;;;;;;;25.00;6.22;;;;;;;;;;5090727;28;20039;-63
2022/01/14 07:54:05;;;;;;;25.23;5.60;;;;;;;;;;5088094;28;20051;-62
2022/01/14 07:56:35;;;;;;;27.42;6.05;;;;;;;;;;5090368;28;20103;-61
2022/01/14 07:59:01;;;;;;;18.45;4.45;;;;;;;;;;5086417;28;20032;-63
2022/01/14 08:01:27;;;;;;;28.15;5.68;;;;;;;;;;5089658;28;20093;-62
2022/01/14 08:03:54;;;;;;;24.40;4.22;;;;;;;;;;5088804;28;20059;-62
2022/01/14 08:06:22;;;;;;;22.20;5.00;;;;;;;;;;5088609;28;20051;-62
2022/01/14 08:08:49;;;;;;;17.83;4.07;;;;;;;;;;5088545;28;20477;-62
2022/01/14 08:11:15;;;;;;;20.75;4.38;;;;;;;;;;5069509;28;20059;-61
2022/01/14 08:13:41;;;;;;;23.50;4.25;;;;;;;;;;5088859;28;20107;-60
2022/01/14 08:16:07;;;;;;;29.20;4.43;;;;;;;;;;5089138;28;20054;-60
2022/01/14 08:18:33;;;;;;;20.52;3.65;;;;;;;;;;5087072;28;20101;-61
2022/01/14 08:20:59;;;;;;;23.30;3.70;;;;;;;;;;5088701;28;20104;-61
2022/01/14 08:23:25;;;;;;;23.55;3.97;;;;;;;;;;5086627;28;20199;-62
2022/01/14 08:25:53;;;;;;;23.25;3.70;;;;;;;;;;5071053;28;20054;-62
2022/01/14 08:28:22;;;;;;;19.77;3.53;;;;;;;;;;5090105;28;20048;-62
2022/01/14 08:30:48;;;;;;;22.92;3.85;;;;;;;;;;5086446;28;20081;-62
2022/01/14 08:33:14;;;;;;;29.08;5.05;;;;;;;;;;5084732;28;20040;-62
2022/01/14 08:35:41;;;;;;;24.83;4.18;;;;;;;;;;5086237;28;20072;-61
2022/01/14 08:38:07;;;;;;;23.20;4.60;;;;;;;;;;5086271;28;20122;-61
2022/01/14 08:40:33;;;;;;;17.98;3.88;;;;;;;;;;5086550;28;20028;-62
2022/01/14 08:43:00;;;;;;;18.98;3.92;;;;;;;;;;5088366;28;20043;-61
2022/01/14 08:45:26;;;;;;;21.75;4.18;;;;;;;;;;5069966;28;20043;-60
2022/01/14 08:47:53;;;;;;;22.70;4.90;;;;;;;;;;5088994;28;20528;-62
2022/01/14 08:50:23;;;;;;;28.60;4.93;;;;;;;;;;5085929;28;20492;-62
2022/01/14 08:52:49;;;;;;;33.20;6.10;;;;;;;;;;5085782;28;20079;-63
2022/01/14 08:55:17;;;;;;;25.77;6.30;;;;;;;;;;5086696;28;20066;-62
2022/01/14 08:57:46;;;;;;;26.00;6.90;;;;;;;;;;5085990;28;20076;-63
2022/01/14 09:00:14;;;;;;;25.88;6.63;;;;;;;;;;5086236;28;20032;-62
2022/01/14 09:02:40;;;;;;;26.65;6.20;;;;;;;;;;5086237;28;20108;-62
2022/01/14 09:05:06;;;;;;;26.13;7.15;;;;;;;;;;5086805;28;20039;-63
2022/01/14 09:07:33;;;;;;;22.23;6.65;;;;;;;;;;5086025;28;20466;-63
2022/01/14 09:09:59;;;;;;;22.50;5.90;;;;;;;;;;5087541;28;20111;-63
2022/01/14 09:12:25;;;;;;;24.05;6.43;;;;;;;;;;5085312;28;20147;-62
2022/01/14 09:14:51;;;;;;;23.02;6.15;;;;;;;;;;5085952;28;20048;-62
2022/01/14 09:17:17;;;;;;;18.85;4.30;;;;;;;;;;5068971;28;20040;-62
2022/01/14 09:19:44;;;;;;;20.50;4.13;;;;;;;;;;5071337;28;20412;-62
2022/01/14 09:22:15;;;;;;;25.42;4.45;;;;;;;;;;5069486;28;20123;-62
2022/01/14 09:24:41;;;;;;;20.50;3.90;;;;;;;;;;5087362;28;20047;-62
2022/01/14 09:27:07;;;;;;;22.60;3.70;;;;;;;;;;5092139;28;20039;-61
2022/01/14 09:29:33;;;;;;;21.48;3.67;;;;;;;;;;5088369;28;20028;-62
2022/01/14 09:31:59;;;;;;;21.20;2.88;;;;;;;;;;5084600;28;20044;-62
2022/01/14 09:34:25;;;;;;;23.13;3.50;;;;;;;;;;5088738;28;20047;-63
2022/01/14 09:36:51;;;;;;;19.92;3.40;;;;;;;;;;5086874;28;20043;-62
2022/01/14 09:39:18;;;;;;;25.40;3.83;;;;;;;;;;5087377;28;20430;-62
2022/01/14 09:41:44;;;;;;;19.98;3.30;;;;;;;;;;5086749;28;20032;-62
2022/01/14 09:44:14;;;;;;;19.67;3.38;;;;;;;;;;5084734;28;20044;-61
2022/01/14 09:46:40;;;;;;;24.08;3.55;;;;;;;;;;5083392;28;20043;-62
2022/01/14 09:49:06;;;;;;;20.42;2.75;;;;;;;;;;5090512;28;20051;-62
2022/01/14 09:51:32;;;;;;;17.60;2.90;;;;;;;;;;5085173;28;20050;-62
2022/01/14 09:53:59;;;;;;;23.52;2.80;;;;;;;;;;5087721;28;20040;-62
2022/01/14 09:56:25;;;;;;;21.17;3.08;;;;;;;;;;5085928;28;20042;-63
2022/01/14 09:58:52;;;;;;;19.83;3.00;;;;;;;;;;5068784;28;20043;-62
2022/01/14 10:01:20;;;;;;;20.80;2.67;;;;;;;;;;5089625;28;20039;-62
2022/01/14 10:03:55;;;;;;;20.77;3.47;;;;;;;;;;5086784;28;20071;-62
2022/01/14 10:06:33;;;;;;;20.60;2.90;;;;;;;;;;5083649;28;20060;-61
2022/01/14 10:09:21;;;;;;;21.63;2.80;;;;;;;;;;5084922;28;20031;-61
2022/01/14 10:12:07;;;;;;;22.20;2.60;;;;;;;;;;5069686;28;20136;-61
2022/01/14 10:14:39;;;;;;;18.50;2.72;;;;;;;;;;5087330;28;20048;-61
2022/01/14 10:17:07;;;;;;;22.60;2.97;;;;;;;;;;5068096;28;20045;-61
2022/01/14 10:19:40;;;;;;;20.98;2.28;;;;;;;;;;5079848;28;20043;-62
2022/01/14 10:22:18;;;;;;;22.92;2.42;;;;;;;;;;5080441;28;20079;-62
2022/01/14 10:24:53;;;;;;;19.90;2.67;;;;;;;;;;5078155;28;20039;-63
2022/01/14 10:27:30;;;;;;;18.35;2.50;;;;;;;;;;5087045;28;20040;-63
2022/01/14 10:30:06;;;;;;;17.88;1.70;;;;;;;;;;5083846;28;20044;-63
2022/01/14 10:32:34;;;;;;;20.48;3.25;;;;;;;;;;5083695;28;20047;-63
2022/01/14 10:35:07;;;;;;;18.60;2.20;;;;;;;;;;5085569;28;20051;-63
2022/01/14 10:37:34;;;;;;;19.98;2.70;;;;;;;;;;5084334;28;20036;-63
2022/01/14 10:40:00;;;;;;;21.55;3.00;;;;;;;;;;5085075;28;20520;-62
2022/01/14 10:42:34;;;;;;;18.92;2.72;;;;;;;;;;5069633;28;20043;-60
2022/01/14 10:45:00;;;;;;;;;;;;;;;;;;5085047;28;20044;-61
2022/01/14 10:47:26;;;;;;;28.48;3.45;;;;;;;;;;5087096;28;19934;-62
2022/01/14 10:49:56;;;;;;;17.23;2.28;;;;;;;;;;5083720;28;20047;-62
2022/01/14 10:52:23;;;;;;;20.58;2.78;;;;;;;;;;5087270;28;20142;-62
2022/01/14 10:54:51;;;;;;;23.25;3.13;;;;;;;;;;5086576;28;20051;-62
2022/01/14 10:57:26;;;;;;;21.45;3.03;;;;;;;;;;5086396;28;20540;-62
2022/01/14 10:59:57;;;;;;;20.40;2.13;;;;;;;;;;5068528;28;20036;-63
2022/01/14 11:02:33;;;;;;;18.30;2.50;;;;;;;;;;5085731;28;20232;-61
2022/01/14 11:05:07;;;;;;;21.30;2.67;;;;;;;;;;5084759;28;20052;-62
2022/01/14 11:07:33;;;;;;;18.38;2.67;;;;;;;;;;5102783;28;20079;-61
2022/01/14 11:10:00;;;;;;;20.17;2.58;;;;;;;;;;5067257;28;20066;-62
2022/01/14 11:12:26;;;;;;;25.77;2.60;;;;;;;;;;5066590;28;20044;-62
2022/01/14 11:14:52;;;;;;;25.60;2.78;;;;;;;;;;5086152;28;20146;-62
2022/01/14 11:17:18;;;;;;;25.67;4.32;;;;;;;;;;5087543;28;20036;-62
2022/01/14 11:19:48;;;;;;;21.58;3.25;;;;;;;;;;5087755;28;20071;-63
2022/01/14 11:24:59;;;;;;;23.40;3.13;;;;;;;;;;5087540;28;20046;-63
2022/01/14 11:27:26;;;;;;;20.38;2.92;;;;;;;;;;5087853;28;20036;-62
2022/01/14 11:29:57;;;;;;;23.13;3.22;;;;;;;;;;5087262;28;20067;-62
2022/01/14 11:32:24;;;;;;;22.15;3.65;;;;;;;;;;5087578;28;20062;-62
2022/01/14 11:34:51;;;;;;;30.38;3.70;;;;;;;;;;5088116;28;20127;-63
2022/01/14 11:37:29;;;;;;;23.98;3.30;;;;;;;;;;5071307;28;20086;-62
2022/01/14 11:40:04;;;;;;;23.33;3.70;;;;;;;;;;5087459;28;20196;-63
2022/01/14 11:42:45;;;;;;;30.85;3.60;;;;;;;;;;5071129;28;20040;-63
2022/01/14 11:45:17;;;;;;;24.70;3.72;;;;;;;;;;5087628;28;20144;-62
2022/01/14 11:47:45;;;;;;;22.40;2.80;;;;;;;;;;5087782;28;20044;-61
2022/01/14 11:50:23;;;;;;;27.85;4.07;;;;;;;;;;5087111;28;20058;-61
2022/01/14 11:52:49;;;;;;;25.50;3.65;;;;;;;;;;5086005;28;20589;-61
2022/01/14 11:55:22;;;;;;;29.23;3.60;;;;;;;;;;5070349;28;20035;-62
2022/01/14 11:57:49;;;;;;;22.45;3.17;;;;;;;;;;5087656;28;20370;-63
2022/01/14 12:00:30;;;;;;;28.23;4.18;;;;;;;;;;5089512;28;20131;-62
2022/01/14 12:02:58;;;;;;;26.17;4.18;;;;;;;;;;5090167;28;20048;-63
2022/01/14 12:05:30;;;;;;;23.70;3.30;;;;;;;;;;5103594;28;20056;-63
2022/01/14 12:08:18;;;;;;;27.50;4.00;;;;;;;;;;5108682;28;20043;-63
2022/01/14 12:10:46;;;;;;;26.50;4.05;;;;;;;;;;5107637;28;20039;-63
2022/01/14 12:13:48;;;;;;;31.17;4.18;;;;;;;;;;5108615;28;20202;-63
2022/01/14 12:19:03;;;;;;;33.15;5.00;;;;;;;;;;5108385;28;20043;-63
2022/01/14 12:21:40;;;;;;;31.30;4.15;;;;;;;;;;5110191;28;20039;-63
2022/01/14 12:24:18;;;;;;;28.25;3.97;;;;;;;;;;5108439;28;20421;-62
2022/01/14 12:27:12;;;;;;;34.22;4.75;;;;;;;;;;5108964;28;20047;-62
2022/01/14 12:29:42;;;;;;;41.88;5.00;;;;;;;;;;5109501;28;20079;-62
2022/01/14 12:32:13;;;;;;;31.60;4.47;;;;;;;;;;5108678;28;20043;-62
2022/01/14 12:34:40;;;;;;;34.60;3.80;;;;;;;;;;5108982;28;20384;-62
2022/01/14 12:37:10;;;;;;;37.95;4.25;;;;;;;;;;5109853;28;20396;-62
2022/01/14 12:39:38;;;;;;;43.22;5.00;;;;;;;;;;5090964;28;20088;-62
2022/01/14 12:42:05;;;;;;;37.13;4.65;;;;;;;;;;5090912;28;20043;-62
2022/01/14 12:44:31;;;;;;;40.20;5.32;;;;;;;;;;5108023;28;20091;-62
2022/01/14 12:47:01;;;;;;;35.25;4.68;;;;;;;;;;5108081;28;20071;-62
2022/01/14 12:49:30;;;;;;;44.67;5.55;;;;;;;;;;5091846;28;20061;-62
2022/01/14 12:52:03;;;;;;;27.52;4.43;;;;;;;;;;5107962;28;20116;-62
2022/01/14 12:54:31;;;;;;;25.52;4.70;;;;;;;;;;5109384;28;20122;-61
2022/01/14 12:56:57;;;;;;;26.55;4.63;;;;;;;;;;5107313;28;20082;-63
2022/01/14 12:59:24;;;;;;;36.92;4.40;;;;;;;;;;5109221;28;20067;-62
2022/01/14 13:01:54;;;;;;;34.55;5.38;;;;;;;;;;5107180;28;20064;-62
2022/01/14 13:04:21;;;;;;;36.10;5.03;;;;;;;;;;5108642;28;20464;-62
2022/01/14 13:06:55;;;;;;;37.63;5.13;;;;;;;;;;5107970;28;20039;-62
2022/01/14 13:09:21;;;;;;;;;;;;;;;;;;5108616;28;20418;-62
2022/01/14 13:11:51;;;;;;;42.40;5.63;;;;;;;;;;5109005;28;20018;-62
2022/01/14 13:14:23;;;;;;;26.88;4.13;;;;;;;;;;5107404;28;20035;-62
2022/01/14 13:16:52;;;;;;;29.27;5.00;;;;;;;;;;5109375;28;20452;-62
2022/01/14 13:19:22;;;;;;;44.67;5.50;;;;;;;;;;5090709;28;20172;-62
2022/01/14 13:21:48;;;;;;;37.58;5.35;;;;;;;;;;5107887;28;20036;-62
2022/01/14 13:24:21;;;;;;;44.42;6.57;;;;;;;;;;5107882;28;20107;-61
2022/01/14 13:27:06;;;;;;;45.05;5.88;;;;;;;;;;5090615;28;20043;-62
2022/01/14 13:29:39;;;;;;;44.53;6.75;;;;;;;;;;5107930;28;20128;-62
2022/01/14 13:32:05;;;;;;;44.78;5.90;;;;;;;;;;5108653;28;20043;-62
2022/01/14 13:34:32;;;;;;;45.90;6.55;;;;;;;;;;5107016;28;20420;-60
2022/01/14 13:36:58;;;;;;;41.08;6.75;;;;;;;;;;5107271;28;20039;-61
2022/01/14 13:39:25;;;;;;;42.03;7.40;;;;;;;;;;5090662;28;20069;-62
2022/01/14 13:41:52;;;;;;;66.15;9.30;;;;;;;;;;5109076;28;20035;-62
2022/01/14 13:44:31;;;;;;;65.32;8.68;;;;;;;;;;5090976;28;20097;-62
2022/01/14 13:47:00;;;;;;;49.28;6.50;;;;;;;;;;5102626;28;20120;-63
2022/01/14 13:49:27;;;;;;;45.17;8.77;;;;;;;;;;5094087;28;20134;-63
2022/01/14 13:52:09;;;;;;;49.40;8.55;;;;;;;;;;5082011;28;20206;-64
2022/01/14 13:54:36;;;;;;;74.82;8.85;;;;;;;;;;5100748;28;20078;-64
2022/01/14 13:57:09;;;;;;;49.90;8.90;;;;;;;;;;5085043;28;20051;-64
2022/01/14 13:59:35;;;;;;;;;;;;;;;;;;5068032;28;20071;-63
2022/01/14 14:02:04;;;;;;;45.33;7.13;;;;;;;;;;5086866;28;20455;-62
2022/01/14 14:04:32;;;;;;;48.30;8.73;;;;;;;;;;5091039;28;20493;-62
2022/01/14 14:07:14;;;;;;;57.58;8.80;;;;;;;;;;5087204;28;20032;-62
2022/01/14 14:12:38;;;;;;;47.17;8.07;;;;;;;;;;5087365;28;20055;-62
2022/01/14 14:17:59;;;;;;;40.17;7.47;;;;;;;;;;5117005;28;20131;-64
2022/01/14 14:20:25;;;;;;;44.95;7.70;;;;;;;;;;5085083;28;20032;-63
2022/01/14 14:22:52;;;;;;;52.35;7.85;;;;;;;;;;5069070;28;20390;-63
2022/01/14 14:25:30;;;;;;;59.65;8.55;;;;;;;;;;5085556;28;20059;-62
2022/01/14 14:28:01;;;;;;;45.00;7.80;;;;;;;;;;5085761;28;20101;-63
2022/01/14 14:30:34;;;;;;;54.85;8.70;;;;;;;;;;5086995;28;20397;-62
2022/01/14 14:33:00;;;;;;;49.67;8.75;;;;;;;;;;5091618;28;20482;-63
2022/01/14 14:35:32;;;;;;;58.67;9.43;;;;;;;;;;5084646;28;20397;-62
2022/01/14 14:37:58;;;;;;;48.45;8.05;;;;;;;;;;5089069;28;20062;-63
2022/01/14 14:40:30;;;;;;;47.13;8.35;;;;;;;;;;5085631;28;20493;-61
2022/01/14 14:42:58;;;;;;;52.70;9.45;;;;;;;;;;5085721;28;20559;-62
2022/01/14 14:45:24;;;;;;;58.28;9.23;;;;;;;;;;5087811;28;20055;-62
2022/01/14 14:47:51;;;;;;;54.80;8.52;;;;;;;;;;5086356;28;20044;-63
2022/01/14 14:50:18;;;;;;;41.90;7.72;;;;;;;;;;5090877;28;20445;-62
2022/01/14 14:52:45;;;;;;;46.67;8.07;;;;;;;;;;5089324;28;20044;-63
2022/01/14 14:55:16;;;;;;;61.63;9.02;;;;;;;;;;5088621;28;20440;-62
2022/01/14 14:57:42;;;;;;;54.13;9.35;;;;;;;;;;5122414;27;20528;-62
2022/01/14 15:00:10;;;;;;;46.20;8.55;;;;;;;;;;5095052;28;20032;-62
2022/01/14 15:02:37;;;;;;;58.67;9.18;;;;;;;;;;5076438;28;20560;-61
2022/01/14 15:05:04;;;;;;;58.30;9.88;;;;;;;;;;5089689;28;20050;-61